Time;durP1;ratioP1;P1;durP2;ratioP2;P2;SDS_P1;SDS_P2;PMS_P1;PMS_P2;Temp;Humidity;BMP_temperature;BMP_pressure;BME280_temperature;BME280_humidity;BME280_pressure;Samples;Min_cycle;Max_cycle;Signal;HPM_P1;HPM_P2
2021/07/21 00:01:40;;;;;;;6.00;2.75;;;;;;;17.71;nan;101106.16;5011966;28;20046;-80
2021/07/21 00:04:05;;;;;;;6.30;3.20;;;;;;;17.72;nan;101103.47;5008435;28;20084;-80
2021/07/21 00:06:31;;;;;;;7.90;3.00;;;;;;;17.70;nan;101101.75;5011070;28;20505;-79
2021/07/21 00:08:56;;;;;;;5.72;3.03;;;;;;;17.71;nan;101106.16;5011450;28;20034;-79
2021/07/21 00:14:18;;;;;;;6.97;2.67;;;;;;;17.62;nan;101107.28;5007984;28;20038;-80
2021/07/21 00:16:49;;;;;;;10.50;3.67;;;;;;;17.61;nan;101108.22;5006434;28;20102;-80
2021/07/21 00:21:58;;;;;;;5.88;3.05;;;;;;;17.54;nan;101109.28;5010993;28;20034;-80
2021/07/21 00:24:23;;;;;;;6.43;2.88;;;;;;;17.52;nan;101106.63;4991917;28;20538;-80
2021/07/21 00:26:49;;;;;;;5.28;3.40;;;;;;;17.54;nan;101109.28;5009368;28;20037;-79
2021/07/21 00:29:14;;;;;;;8.07;2.95;;;;;;;17.45;nan;101110.41;4992066;28;20515;-80
2021/07/21 00:31:39;;;;;;;8.90;3.17;;;;;;;17.40;nan;101106.97;5008433;28;20501;-79
2021/07/21 00:34:05;;;;;;;5.28;2.67;;;;;;;17.43;nan;101103.34;5011929;28;20037;-79
2021/07/21 00:36:30;;;;;;;4.97;3.13;;;;;;;17.39;nan;101105.19;4987519;28;20085;-79
2021/07/21 00:38:57;;;;;;;7.35;3.35;;;;;;;17.27;nan;101097.53;5011400;28;20034;-79
2021/07/21 00:41:24;;;;;;;5.10;3.08;;;;;;;17.19;nan;101107.50;4990761;28;20034;-79
2021/07/21 00:43:50;;;;;;;5.10;2.90;;;;;;;17.13;nan;101097.84;5010657;28;20070;-79
2021/07/21 00:46:15;;;;;;;7.57;3.22;;;;;;;17.12;nan;101095.22;4999417;28;20032;-79
2021/07/21 00:48:41;;;;;;;5.90;3.08;;;;;;;17.04;nan;101098.94;4992797;28;20120;-79
2021/07/21 00:51:06;;;;;;;5.35;3.40;;;;;;;16.98;nan;101098.22;5008776;28;20027;-79
2021/07/21 00:53:34;;;;;;;7.07;3.38;;;;;;;16.98;nan;101096.44;4992457;28;20037;-79
2021/07/21 00:55:59;;;;;;;5.85;3.40;;;;;;;16.92;nan;101098.34;4960728;28;20026;-79
2021/07/21 00:58:26;;;;;;;8.85;3.78;;;;;;;16.90;nan;101095.75;4994163;28;20037;-79
2021/07/21 01:00:53;;;;;;;5.85;3.22;;;;;;;16.90;nan;101101.06;5007585;28;20412;-79
2021/07/21 01:03:19;;;;;;;7.80;3.20;;;;;;;16.86;nan;101099.38;4993057;28;20512;-79
2021/07/21 01:05:45;;;;;;;6.32;3.30;;;;;;;16.82;nan;101103.00;4990750;28;20128;-79
2021/07/21 01:08:13;;;;;;;6.13;3.58;;;;;;;16.76;nan;101098.66;4991082;28;20096;-79
2021/07/21 01:11:13;;;;;;;5.20;3.35;;;;;;;16.77;nan;101105.81;4986563;28;20555;-79
2021/07/21 01:13:59;;;;;;;6.60;3.50;;;;;;;16.71;nan;101099.69;4988268;28;20451;-79
2021/07/21 01:16:28;;;;;;;6.38;3.47;;;;;;;16.70;nan;101097.94;5002585;28;20034;-79
2021/07/21 01:19:10;;;;;;;8.52;4.07;;;;;;;16.68;nan;101105.09;4990364;28;20112;-79
2021/07/21 01:22:06;;;;;;;7.32;3.50;;;;;;;16.63;nan;101108.72;4973559;28;20041;-79
2021/07/21 01:24:54;;;;;;;7.78;3.67;;;;;;;16.61;nan;101105.25;4988515;28;20031;-79
2021/07/21 01:27:28;;;;;;;9.75;3.95;;;;;;;16.46;nan;101105.56;4984638;28;20039;-79
2021/07/21 01:29:58;;;;;;;5.85;3.58;;;;;;;16.38;nan;101099.53;4988911;28;20030;-79
2021/07/21 01:32:28;;;;;;;5.32;3.40;;;;;;;16.30;nan;101106.81;4987951;28;20036;-79
2021/07/21 01:34:59;;;;;;;6.07;3.60;;;;;;;16.19;nan;101105.25;5006338;28;20295;-79
2021/07/21 01:37:26;;;;;;;8.32;4.10;;;;;;;16.08;nan;101104.56;4987661;28;20030;-79
2021/07/21 01:39:57;;;;;;;7.85;4.05;;;;;;;15.98;nan;101108.28;4993377;28;20022;-78
2021/07/21 01:42:24;;;;;;;6.82;3.75;;;;;;;15.93;nan;101110.19;5012688;28;20042;-78
2021/07/21 01:44:53;;;;;;;8.45;4.10;;;;;;;15.84;nan;101113.03;4995454;28;20038;-78
2021/07/21 01:47:23;;;;;;;7.88;4.18;;;;;;;15.76;nan;101108.72;4994321;28;20117;-78
2021/07/21 01:49:52;;;;;;;7.15;4.35;;;;;;;15.68;nan;101105.28;4994786;28;20500;-78
2021/07/21 01:52:23;;;;;;;6.75;3.72;;;;;;;15.62;nan;101105.41;4994257;28;20038;-78
2021/07/21 01:54:51;;;;;;;9.70;3.92;;;;;;;15.56;nan;101108.16;4995008;28;20026;-78
2021/07/21 01:57:19;;;;;;;6.43;3.58;;;;;;;15.47;nan;101117.19;4992428;28;20053;-78
2021/07/21 01:59:58;;;;;;;7.65;4.30;;;;;;;15.40;nan;101111.97;4980649;28;20116;-78
2021/07/21 02:02:46;;;;;;;7.13;4.28;;;;;;;15.32;nan;101118.31;5009071;28;20038;-78
2021/07/21 02:05:16;;;;;;;5.80;3.97;;;;;;;15.27;nan;101116.63;5011984;28;20054;-78
2021/07/21 02:07:44;;;;;;;8.90;4.47;;;;;;;15.16;nan;101118.59;4994195;28;20057;-78
2021/07/21 02:10:15;;;;;;;7.72;4.30;;;;;;;15.05;nan;101121.41;4996318;28;20124;-78
2021/07/21 02:13:17;;;;;;;6.45;4.70;;;;;;;14.98;nan;101123.28;4980116;28;20037;-78
2021/07/21 02:15:50;;;;;;;5.70;4.28;;;;;;;14.93;nan;101124.25;4996523;28;20034;-78
2021/07/21 02:18:22;;;;;;;7.68;4.43;;;;;;;14.86;nan;101123.47;4996699;28;20111;-78
2021/07/21 02:20:52;;;;;;;7.68;4.90;;;;;;;14.78;nan;101117.38;4998587;28;20049;-78
2021/07/21 02:23:19;;;;;;;9.25;4.10;;;;;;;14.76;nan;101121.84;5012215;28;20037;-78
2021/07/21 02:25:45;;;;;;;7.82;4.32;;;;;;;14.73;nan;101122.75;5011257;28;20048;-78
2021/07/21 02:28:14;;;;;;;9.90;4.70;;;;;;;14.71;nan;101126.34;4994347;28;20030;-78
2021/07/21 02:30:47;;;;;;;8.85;5.95;;;;;;;14.59;nan;101124.72;4994489;28;20112;-78
2021/07/21 02:33:18;;;;;;;9.18;4.97;;;;;;;14.56;nan;101130.94;5011364;28;20061;-78
2021/07/21 02:35:44;;;;;;;7.20;4.63;;;;;;;14.49;nan;101123.94;4993043;28;20057;-77
2021/07/21 02:38:09;;;;;;;10.25;5.00;;;;;;;14.46;nan;101127.50;4993905;28;20034;-78
2021/07/21 02:40:43;;;;;;;11.50;5.40;;;;;;;14.43;nan;101130.19;5008820;28;20042;-78
2021/07/21 02:43:21;;;;;;;7.95;5.38;;;;;;;14.39;nan;101122.28;4988643;28;20034;-78
2021/07/21 02:45:47;;;;;;;8.38;4.95;;;;;;;14.35;nan;101133.84;4990896;28;20094;-78
2021/07/21 02:48:12;;;;;;;7.75;5.20;;;;;;;14.27;nan;101133.06;5001603;28;20057;-78
2021/07/21 02:50:40;;;;;;;10.10;5.13;;;;;;;14.19;nan;101131.34;4991288;28;20101;-78
2021/07/21 02:53:13;;;;;;;8.65;5.18;;;;;;;14.16;nan;101133.19;4995574;28;20042;-78
2021/07/21 02:56:26;;;;;;;9.00;5.60;;;;;;;14.07;nan;101139.47;5006793;28;20334;-78
2021/07/21 02:59:04;;;;;;;9.18;5.30;;;;;;;14.02;nan;101142.19;4993885;28;20469;-77
2021/07/21 03:01:34;;;;;;;8.15;4.78;;;;;;;14.01;nan;101145.72;4999114;28;20025;-78
2021/07/21 03:04:01;;;;;;;8.85;5.32;;;;;;;14.02;nan;101144.84;5011589;28;20029;-78
2021/07/21 03:06:30;;;;;;;7.43;5.03;;;;;;;14.00;nan;101145.75;4998011;28;20030;-78
2021/07/21 03:09:04;;;;;;;8.80;5.40;;;;;;;13.95;nan;101145.78;4997765;28;20440;-77
2021/07/21 03:11:43;;;;;;;10.75;7.00;;;;;;;13.88;nan;101145.84;4999961;28;20030;-78
2021/07/21 03:14:10;;;;;;;8.40;5.35;;;;;;;13.86;nan;101147.63;4974366;28;20045;-78
2021/07/21 03:16:45;;;;;;;10.40;6.50;;;;;;;13.84;nan;101150.31;4981623;28;20111;-78
2021/07/21 03:19:24;;;;;;;11.73;7.10;;;;;;;13.74;nan;101154.81;5009028;28;20084;-78
2021/07/21 03:21:54;;;;;;;9.05;6.30;;;;;;;13.73;nan;101153.09;4995423;28;20044;-78
2021/07/21 03:24:24;;;;;;;9.10;6.38;;;;;;;13.77;nan;101159.22;4995163;28;20034;-78
2021/07/21 03:27:10;;;;;;;12.93;5.80;;;;;;;13.76;nan;101163.66;4975277;28;20064;-78
2021/07/21 03:29:55;;;;;;;8.60;6.05;;;;;;;13.71;nan;101160.16;5012497;28;20586;-78
2021/07/21 03:32:24;;;;;;;6.75;5.60;;;;;;;13.70;nan;101154.88;4963374;28;20035;-78
2021/07/21 03:34:52;;;;;;;7.22;6.03;;;;;;;13.64;nan;101160.22;4994233;28;20141;-78
2021/07/21 03:37:20;;;;;;;9.48;5.80;;;;;;;13.64;nan;101162.88;4978647;28;20093;-78
2021/07/21 03:39:59;;;;;;;9.93;5.30;;;;;;;13.65;nan;101162.88;5010144;28;20089;-78
2021/07/21 03:42:56;;;;;;;16.30;6.30;;;;;;;13.67;nan;101162.84;4984195;28;20049;-78
2021/07/21 03:45:29;;;;;;;9.23;6.28;;;;;;;13.68;nan;101159.31;4993163;28;20041;-78
2021/07/21 03:47:56;;;;;;;8.48;6.78;;;;;;;13.66;nan;101167.28;5000263;28;20041;-78
2021/07/21 03:50:28;;;;;;;12.00;6.40;;;;;;;13.66;nan;101167.28;4991106;28;20112;-78
2021/07/21 03:52:55;;;;;;;10.38;6.70;;;;;;;13.66;nan;101171.72;4990106;28;20034;-78
2021/07/21 03:55:29;;;;;;;8.88;6.80;;;;;;;13.68;nan;101173.47;4993906;28;20034;-78
2021/07/21 03:58:12;;;;;;;8.60;5.85;;;;;;;13.70;nan;101177.00;5012134;28;20062;-78
2021/07/21 04:00:56;;;;;;;8.93;5.77;;;;;;;13.72;nan;101179.59;4981788;28;20037;-78
2021/07/21 04:03:29;;;;;;;7.25;5.60;;;;;;;13.74;nan;101178.69;4977867;28;20034;-78
2021/07/21 04:06:03;;;;;;;8.55;6.55;;;;;;;13.79;nan;101178.66;5013662;28;20057;-78
2021/07/21 04:08:45;;;;;;;9.95;5.53;;;;;;;13.84;nan;101184.81;4996829;28;20030;-77
2021/07/21 04:11:14;;;;;;;8.98;6.53;;;;;;;13.87;nan;101181.25;4991120;28;20097;-78
2021/07/21 04:13:41;;;;;;;10.27;6.07;;;;;;;13.93;nan;101190.03;5012157;28;20101;-78
2021/07/21 04:16:17;;;;;;;14.40;5.90;;;;;;;13.93;nan;101194.44;4994461;28;20044;-79
2021/07/21 04:18:43;;;;;;;10.25;6.55;;;;;;;13.96;nan;101192.66;4989197;28;20026;-78
2021/07/21 04:21:12;;;;;;;9.07;6.00;;;;;;;14.03;nan;101196.13;4992982;28;20124;-78
2021/07/21 04:23:42;;;;;;;9.65;5.68;;;;;;;14.08;nan;101189.00;4976105;28;20041;-78
2021/07/21 04:26:11;;;;;;;10.07;6.45;;;;;;;14.07;nan;101199.63;5002532;28;20030;-78
2021/07/21 04:28:39;;;;;;;9.00;6.60;;;;;;;14.06;nan;101195.22;5006533;28;20038;-78
2021/07/21 04:31:05;;;;;;;8.70;6.47;;;;;;;14.09;nan;101195.19;4983833;28;20124;-78
2021/07/21 04:33:34;;;;;;;11.18;6.53;;;;;;;14.15;nan;101201.31;4980143;28;20066;-78
2021/07/21 04:36:01;;;;;;;9.88;6.35;;;;;;;14.21;nan;101200.38;5011392;28;20042;-78
2021/07/21 04:38:28;;;;;;;9.10;6.65;;;;;;;14.16;nan;101202.19;4996836;28;20054;-78
2021/07/21 04:41:08;;;;;;;9.48;6.20;;;;;;;14.23;nan;101202.13;5009653;28;20089;-78
2021/07/21 04:43:54;;;;;;;11.70;6.40;;;;;;;14.31;nan;101204.69;5005805;28;20030;-78
2021/07/21 04:46:30;;;;;;;12.75;5.93;;;;;;;14.41;nan;101211.66;5008288;28;20424;-78
2021/07/21 04:49:04;;;;;;;9.93;6.68;;;;;;;14.47;nan;101214.25;4983019;28;20085;-77
2021/07/21 04:51:31;;;;;;;8.38;5.85;;;;;;;14.54;nan;101217.75;4992630;28;20042;-78
2021/07/21 04:54:05;;;;;;;8.95;6.82;;;;;;;14.56;nan;101215.06;4995352;28;20540;-78
2021/07/21 04:56:36;;;;;;;9.80;6.60;;;;;;;14.66;nan;101225.56;4990359;28;20046;-78
2021/07/21 04:59:02;;;;;;;12.70;6.82;;;;;;;14.69;nan;101220.22;5014837;28;20044;-78
2021/07/21 05:01:28;;;;;;;9.45;6.68;;;;;;;14.77;nan;101222.78;5010296;28;20513;-78
2021/07/21 05:03:54;;;;;;;11.02;6.43;;;;;;;14.84;nan;101226.25;4980968;28;20034;-78
2021/07/21 05:06:42;;;;;;;9.25;6.40;;;;;;;14.93;nan;101230.56;5009165;28;20018;-78
2021/07/21 05:09:07;;;;;;;8.48;6.40;;;;;;;14.99;nan;101226.06;4995141;28;20026;-79
2021/07/21 05:11:42;;;;;;;10.23;6.28;;;;;;;15.04;nan;101236.63;4995747;28;20045;-78
2021/07/21 05:14:08;;;;;;;11.93;7.00;;;;;;;15.00;nan;101238.44;4996142;28;20077;-78
2021/07/21 05:16:49;;;;;;;9.57;6.43;;;;;;;15.08;nan;101235.66;5013187;28;20026;-78
2021/07/21 05:19:14;;;;;;;10.38;6.07;;;;;;;15.11;nan;101235.63;4995422;28;20068;-78
2021/07/21 05:21:41;;;;;;;8.40;6.88;;;;;;;15.16;nan;101231.13;4994780;28;20065;-79
2021/07/21 05:24:07;;;;;;;11.15;6.35;;;;;;;15.23;nan;101240.78;4996277;28;20034;-78
2021/07/21 05:26:33;;;;;;;10.63;7.30;;;;;;;15.30;nan;101233.59;4993296;28;20034;-78
2021/07/21 05:29:09;;;;;;;10.50;6.38;;;;;;;15.37;nan;101232.59;4995139;28;20037;-78
2021/07/21 05:31:53;;;;;;;11.05;6.53;;;;;;;15.44;nan;101231.63;5007749;28;20076;-78
2021/07/21 05:34:26;;;;;;;12.70;6.70;;;;;;;15.50;nan;101230.63;5007773;28;20073;-78
2021/07/21 05:37:04;;;;;;;11.98;6.65;;;;;;;15.68;nan;101233.00;4992318;28;20034;-78
2021/07/21 05:39:43;;;;;;;11.88;6.68;;;;;;;15.77;nan;101240.88;4995745;28;20087;-78
2021/07/21 05:42:09;;;;;;;10.35;6.80;;;;;;;15.84;nan;101244.31;4995740;28;20058;-78
2021/07/21 05:44:37;;;;;;;8.07;6.53;;;;;;;15.93;nan;101237.97;5011314;28;20424;-78
2021/07/21 05:47:03;;;;;;;9.88;6.88;;;;;;;16.07;nan;101243.94;4995166;28;20038;-78
2021/07/21 05:49:28;;;;;;;9.55;6.68;;;;;;;16.19;nan;101249.06;4995729;28;20620;-78
2021/07/21 05:52:01;;;;;;;8.82;6.30;;;;;;;16.37;nan;101250.50;4993329;28;20097;-78
2021/07/21 05:54:34;;;;;;;11.75;6.93;;;;;;;16.54;nan;101244.84;5011462;28;20030;-78
2021/07/21 05:57:01;;;;;;;9.95;6.90;;;;;;;16.80;nan;101244.34;4995982;28;20096;-79
2021/07/21 05:59:33;;;;;;;23.65;7.07;;;;;;;17.27;nan;101252.25;4996430;28;20045;-78
2021/07/21 06:01:59;;;;;;;9.32;6.13;;;;;;;17.66;nan;101252.25;4995909;28;20034;-78
2021/07/21 06:04:25;;;;;;;10.18;6.45;;;;;;;17.93;nan;101261.38;4995962;28;20030;-79
2021/07/21 06:07:09;;;;;;;9.57;6.13;;;;;;;18.00;nan;101264.78;5011643;28;20048;-79
2021/07/21 06:09:53;;;;;;;12.75;6.40;;;;;;;17.97;nan;101263.06;5005558;28;20049;-78
2021/07/21 06:12:24;;;;;;;13.73;6.70;;;;;;;18.04;nan;101266.47;4995828;28;20037;-79
2021/07/21 06:14:49;;;;;;;10.55;6.45;;;;;;;18.05;nan;101270.88;4996202;28;20030;-78
2021/07/21 06:17:16;;;;;;;12.88;6.97;;;;;;;18.10;nan;101279.66;4996660;28;20197;-78
2021/07/21 06:20:13;;;;;;;12.43;6.88;;;;;;;18.04;nan;101279.81;4989510;28;20061;-79
2021/07/21 06:22:43;;;;;;;11.85;6.35;;;;;;;18.06;nan;101278.84;4994829;28;20061;-78
2021/07/21 06:25:17;;;;;;;12.75;6.65;;;;;;;18.17;nan;101283.94;5008595;28;20081;-79
2021/07/21 06:28:04;;;;;;;10.90;6.35;;;;;;;18.17;nan;101283.94;5003509;28;20476;-79
2021/07/21 06:30:34;;;;;;;11.60;6.80;;;;;;;18.25;nan;101281.94;4989224;28;20034;-79
2021/07/21 06:33:01;;;;;;;10.15;6.65;;;;;;;18.37;nan;101284.28;4989644;28;20030;-79
2021/07/21 06:35:27;;;;;;;10.07;5.72;;;;;;;18.56;nan;101294.50;5009091;28;20029;-79
2021/07/21 06:37:53;;;;;;;9.05;6.30;;;;;;;18.54;nan;101296.31;4984111;28;20042;-78
2021/07/21 06:40:21;;;;;;;12.13;6.70;;;;;;;18.48;nan;101291.16;4994884;28;20040;-79
2021/07/21 06:42:49;;;;;;;10.88;6.32;;;;;;;18.64;nan;101302.31;5013799;28;20444;-79
2021/07/21 06:45:14;;;;;;;11.98;6.35;;;;;;;18.60;nan;101297.03;5012082;28;20034;-79
2021/07/21 06:47:46;;;;;;;11.55;6.60;;;;;;;18.55;nan;101306.09;4996579;28;20101;-79
2021/07/21 06:50:23;;;;;;;9.38;6.43;;;;;;;18.50;nan;101305.34;4994304;28;20038;-79
2021/07/21 06:52:49;;;;;;;8.18;6.60;;;;;;;18.54;nan;101301.66;4993818;28;20073;-79
2021/07/21 06:55:34;;;;;;;11.00;6.57;;;;;;;18.76;nan;101307.34;4994876;28;20097;-79
2021/07/21 06:58:08;;;;;;;10.40;7.00;;;;;;;18.66;nan;101314.72;5012631;28;20580;-78
2021/07/21 07:00:47;;;;;;;8.50;6.95;;;;;;;18.93;nan;101317.56;5014775;28;20053;-78
2021/07/21 07:03:32;;;;;;;11.38;6.68;;;;;;;19.22;nan;101316.72;5010414;28;20089;-79
2021/07/21 07:06:16;;;;;;;10.57;6.88;;;;;;;19.13;nan;101315.19;4997683;28;20126;-79
2021/07/21 07:09:00;;;;;;;13.93;7.20;;;;;;;19.02;nan;101319.97;4995069;28;20057;-79
2021/07/21 07:11:44;;;;;;;10.30;6.68;;;;;;;19.06;nan;101318.97;5009044;28;20080;-79
2021/07/21 07:14:09;;;;;;;10.98;7.00;;;;;;;19.17;nan;101321.31;5012744;28;20041;-79
2021/07/21 07:16:35;;;;;;;13.77;7.18;;;;;;;19.24;nan;101317.56;5012880;28;20026;-79
2021/07/21 07:19:00;;;;;;;12.20;7.72;;;;;;;19.36;nan;101322.56;4996699;28;20412;-79
2021/07/21 07:21:29;;;;;;;12.02;7.15;;;;;;;19.38;nan;101317.13;5012248;28;20050;-79
2021/07/21 07:23:55;;;;;;;10.85;7.05;;;;;;;19.36;nan;101318.97;4994569;28;20029;-78
2021/07/21 07:26:21;;;;;;;11.65;7.55;;;;;;;19.60;nan;101312.88;5010925;28;20470;-79
2021/07/21 07:28:46;;;;;;;11.75;6.88;;;;;;;19.46;nan;101320.44;4997421;28;20053;-79
2021/07/21 07:31:12;;;;;;;14.15;7.90;;;;;;;19.52;nan;101324.75;5011660;28;20031;-79
2021/07/21 07:33:37;;;;;;;10.23;6.75;;;;;;;19.47;nan;101322.22;5013859;28;20037;-79
2021/07/21 07:36:04;;;;;;;12.30;8.10;;;;;;;19.60;nan;101331.63;4992089;28;20034;-79
2021/07/21 07:38:29;;;;;;;12.05;7.53;;;;;;;19.67;nan;101324.31;5011054;28;20050;-79
2021/07/21 07:40:54;;;;;;;12.15;6.78;;;;;;;19.81;nan;101326.56;5012131;28;21344;-79
2021/07/21 07:43:20;;;;;;;12.75;7.97;;;;;;;19.92;nan;101327.09;5007407;28;20034;-79
2021/07/21 07:45:45;;;;;;;19.52;10.77;;;;;;;20.03;nan;101330.28;4990940;28;20081;-79
2021/07/21 07:48:10;;;;;;;12.18;7.60;;;;;;;19.90;nan;101323.56;4995869;28;20555;-79
2021/07/21 07:50:36;;;;;;;10.38;7.15;;;;;;;20.01;nan;101323.22;5011654;28;20042;-79
2021/07/21 07:53:02;;;;;;;11.82;7.35;;;;;;;20.25;nan;101321.53;4984821;28;20038;-79
2021/07/21 07:55:29;;;;;;;11.68;7.38;;;;;;;20.45;nan;101321.72;4997499;28;20116;-79
2021/07/21 07:57:54;;;;;;;9.23;6.75;;;;;;;20.71;nan;101322.66;5017777;28;20057;-79
2021/07/21 08:00:20;;;;;;;13.43;7.70;;;;;;;20.80;nan;101325.00;5017673;28;20050;-79
2021/07/21 08:02:45;;;;;;;9.70;7.28;;;;;;;20.90;nan;101318.34;4983808;28;20026;-79
2021/07/21 08:05:11;;;;;;;11.43;7.25;;;;;;;20.98;nan;101321.63;5018212;28;20061;-79
2021/07/21 08:07:36;;;;;;;10.95;7.95;;;;;;;21.05;nan;101319.63;5015099;28;20038;-79
2021/07/21 08:10:04;;;;;;;11.43;7.78;;;;;;;21.02;nan;101323.28;5016332;28;20018;-79
2021/07/21 08:12:30;;;;;;;11.00;7.53;;;;;;;20.99;nan;101325.22;4982382;28;20035;-79
2021/07/21 08:14:55;;;;;;;13.15;7.88;;;;;;;21.30;nan;101330.31;5017780;28;20048;-79
2021/07/21 08:17:21;;;;;;;10.02;7.47;;;;;;;21.49;nan;101321.59;5015560;28;20053;-79
2021/07/21 08:19:46;;;;;;;10.52;7.60;;;;;;;21.57;nan;101316.78;5017045;28;20034;-79
2021/07/21 08:22:12;;;;;;;13.45;8.27;;;;;;;21.79;nan;101323.03;4999604;28;20044;-79
2021/07/21 08:24:37;;;;;;;10.10;7.68;;;;;;;21.72;nan;101321.53;4999032;28;20046;-79
2021/07/21 08:27:03;;;;;;;9.85;7.57;;;;;;;22.07;nan;101317.41;5000134;28;20087;-79
2021/07/21 08:29:28;;;;;;;12.23;7.93;;;;;;;22.15;nan;101325.16;5015684;28;20035;-80
2021/07/21 08:31:54;;;;;;;10.77;7.45;;;;;;;22.07;nan;101332.66;5018193;28;20091;-79
2021/07/21 08:34:20;;;;;;;11.82;8.25;;;;;;;22.11;nan;101331.59;4997270;28;20034;-80
2021/07/21 08:36:45;;;;;;;11.45;7.57;;;;;;;22.19;nan;101325.91;5017133;28;20038;-79
2021/07/21 08:39:12;;;;;;;11.82;7.95;;;;;;;22.24;nan;101330.19;5016447;28;20029;-79
2021/07/21 08:41:38;;;;;;;13.27;8.85;;;;;;;22.45;nan;101338.25;5016870;28;20034;-79
2021/07/21 08:44:06;;;;;;;12.13;9.07;;;;;;;22.49;nan;101339.91;5016933;28;20034;-79
2021/07/21 08:46:35;;;;;;;11.77;7.57;;;;;;;22.64;nan;101328.47;5013991;28;20045;-79
2021/07/21 08:49:00;;;;;;;11.18;7.55;;;;;;;22.70;nan;101327.31;5016687;28;20074;-80
2021/07/21 08:51:27;;;;;;;10.88;7.40;;;;;;;22.91;nan;101330.88;5015223;28;20050;-79
2021/07/21 08:53:52;;;;;;;11.10;7.35;;;;;;;22.80;nan;101328.66;5017648;28;20041;-79
2021/07/21 08:56:19;;;;;;;11.55;7.93;;;;;;;22.91;nan;101330.88;4993082;28;20038;-79
2021/07/21 08:58:46;;;;;;;11.50;8.65;;;;;;;23.06;nan;101334.72;4995730;28;20088;-79
2021/07/21 09:01:12;;;;;;;10.07;7.38;;;;;;;23.04;nan;101332.09;4995450;28;20049;-80
2021/07/21 09:03:37;;;;;;;11.85;8.00;;;;;;;23.26;nan;101325.72;5014346;28;20038;-80
2021/07/21 09:06:03;;;;;;;10.82;7.78;;;;;;;23.23;nan;101331.25;5007051;28;20493;-79
2021/07/21 09:08:30;;;;;;;9.55;7.57;;;;;;;23.09;nan;101330.06;4993932;28;20445;-79
2021/07/21 09:10:56;;;;;;;11.70;8.13;;;;;;;23.25;nan;101329.38;4994209;28;20043;-80
2021/07/21 09:13:22;;;;;;;13.40;7.60;;;;;;;23.29;nan;101333.66;5013475;28;20485;-79
2021/07/21 09:15:48;;;;;;;9.38;6.63;;;;;;;23.41;nan;101331.25;5012198;28;20041;-79
2021/07/21 09:18:16;;;;;;;10.10;7.45;;;;;;;23.72;nan;101323.59;4998122;28;20097;-80
2021/07/21 09:20:45;;;;;;;15.38;10.05;;;;;;;23.88;nan;101331.78;4994281;28;20034;-80
2021/07/21 09:23:11;;;;;;;14.85;8.80;;;;;;;23.73;nan;101323.50;4997971;28;20041;-79
2021/07/21 09:25:38;;;;;;;11.73;7.68;;;;;;;23.84;nan;101329.25;4988319;28;20473;-79
2021/07/21 09:28:09;;;;;;;10.80;6.80;;;;;;;24.23;nan;101324.63;5005207;28;20087;-80
2021/07/21 09:30:39;;;;;;;9.18;6.88;;;;;;;24.13;nan;101321.53;5007352;28;20038;-80
2021/07/21 09:33:10;;;;;;;13.50;7.75;;;;;;;24.08;nan;101315.50;4984958;28;20044;-80
2021/07/21 09:35:47;;;;;;;9.52;6.63;;;;;;;24.02;nan;101318.50;5011112;28;20042;-80
2021/07/21 09:38:22;;;;;;;9.43;6.65;;;;;;;24.26;nan;101327.16;4995175;28;20120;-80
2021/07/21 09:40:51;;;;;;;9.90;5.65;;;;;;;24.36;nan;101317.66;5011018;28;20033;-79
2021/07/21 09:43:20;;;;;;;10.20;6.57;;;;;;;24.17;nan;101319.56;5011703;28;20041;-80
2021/07/21 09:45:46;;;;;;;7.75;5.80;;;;;;;23.85;nan;101324.72;5012597;28;20037;-80
2021/07/21 09:48:13;;;;;;;10.27;7.15;;;;;;;23.73;nan;101320.78;5012103;28;20386;-80
2021/07/21 09:50:44;;;;;;;9.32;6.13;;;;;;;23.76;nan;101317.97;4990144;28;20042;-80
2021/07/21 09:53:14;;;;;;;10.70;6.35;;;;;;;23.96;nan;101308.88;5012536;28;20049;-80
2021/07/21 09:55:42;;;;;;;9.27;6.28;;;;;;;24.31;nan;101306.22;4992199;28;20042;-80
2021/07/21 09:58:09;;;;;;;8.70;5.88;;;;;;;24.51;nan;101307.06;5010217;28;20410;-80
2021/07/21 10:00:37;;;;;;;11.30;5.47;;;;;;;24.44;nan;101307.41;5002120;28;20120;-79
2021/07/21 10:03:15;;;;;;;8.82;5.95;;;;;;;24.37;nan;101322.13;5005711;28;20046;-80
2021/07/21 10:05:55;;;;;;;7.45;5.88;;;;;;;24.59;nan;101307.53;4990903;28;20521;-80
2021/07/21 10:08:43;;;;;;;9.38;5.97;;;;;;;24.61;nan;101305.63;5005083;28;20042;-81
2021/07/21 10:11:26;;;;;;;8.52;5.95;;;;;;;24.73;nan;101307.66;4993408;28;20612;-80
2021/07/21 10:14:02;;;;;;;10.57;5.82;;;;;;;24.62;nan;101305.53;5009397;28;20097;-80
2021/07/21 10:16:44;;;;;;;8.10;5.07;;;;;;;24.68;nan;101307.03;4993572;28;20038;-80
2021/07/21 10:19:14;;;;;;;8.40;4.82;;;;;;;24.64;nan;101308.16;4996552;28;20033;-80
2021/07/21 10:21:42;;;;;;;7.15;4.97;;;;;;;24.58;nan;101308.50;5016433;28;20042;-80
2021/07/21 10:24:09;;;;;;;7.00;4.88;;;;;;;24.66;nan;101306.28;4997977;28;20093;-81
2021/07/21 10:26:35;;;;;;;7.22;5.20;;;;;;;24.39;nan;101304.03;5013389;28;20064;-79
2021/07/21 10:29:02;;;;;;;6.70;5.05;;;;;;;24.57;nan;101295.94;5001827;28;20110;-80
2021/07/21 10:31:28;;;;;;;7.35;5.03;;;;;;;24.63;nan;101295.63;5002932;28;20111;-79
2021/07/21 10:33:54;;;;;;;6.03;4.38;;;;;;;24.38;nan;101301.41;5002053;28;20560;-79
2021/07/21 10:36:20;;;;;;;6.63;4.40;;;;;;;24.31;nan;101308.91;4986415;28;20034;-80
2021/07/21 10:38:46;;;;;;;6.68;4.50;;;;;;;24.34;nan;101300.69;5015050;28;20098;-81
2021/07/21 10:41:13;;;;;;;6.63;4.70;;;;;;;23.91;nan;101299.28;5014856;28;20030;-81
2021/07/21 10:43:43;;;;;;;6.85;4.78;;;;;;;23.71;nan;101305.59;5007324;28;20050;-81
2021/07/21 10:46:43;;;;;;;6.05;4.65;;;;;;;23.65;nan;101312.19;4994969;28;20034;-81
2021/07/21 10:49:23;;;;;;;6.97;4.75;;;;;;;23.28;nan;101310.38;5016854;28;20035;-80
2021/07/21 10:52:43;;;;;;;6.72;4.65;;;;;;;23.25;nan;101310.53;5007807;28;20050;-81
2021/07/21 10:55:24;;;;;;;5.78;4.15;;;;;;;23.09;nan;101308.53;5012379;28;20034;-81
2021/07/21 11:00:39;;;;;;;8.25;4.32;;;;;;;23.32;nan;101302.09;4975897;28;20043;-80
2021/07/21 11:03:20;;;;;;;5.82;4.13;;;;;;;23.53;nan;101296.63;5005671;28;20508;-80
2021/07/21 11:05:55;;;;;;;6.38;4.13;;;;;;;23.58;nan;101305.38;5009170;28;20042;-81
2021/07/21 11:08:23;;;;;;;6.05;4.15;;;;;;;23.46;nan;101296.03;5011318;28;20065;-80
2021/07/21 11:10:50;;;;;;;6.90;4.72;;;;;;;23.59;nan;101299.00;5012154;28;20041;-80
2021/07/21 11:13:28;;;;;;;6.80;4.05;;;;;;;23.90;nan;101302.94;5011129;28;20723;-80
2021/07/21 11:15:55;;;;;;;6.10;4.40;;;;;;;24.03;nan;101298.69;4995655;28;20080;-81
2021/07/21 11:18:21;;;;;;;6.15;4.40;;;;;;;24.19;nan;101294.25;4993613;28;20046;-80
2021/07/21 11:20:59;;;;;;;7.75;4.57;;;;;;;24.34;nan;101298.00;5015761;28;20099;-81
2021/07/21 11:23:46;;;;;;;6.13;4.15;;;;;;;24.51;nan;101294.44;5013320;28;20042;-81
2021/07/21 11:26:34;;;;;;;9.05;4.65;;;;;;;24.69;nan;101296.16;4996231;28;20042;-81
2021/07/21 11:29:24;;;;;;;6.18;4.18;;;;;;;24.68;nan;101299.84;4993916;28;20035;-80
2021/07/21 11:31:49;;;;;;;5.20;3.95;;;;;;;24.64;nan;101303.63;5014211;28;20045;-81
2021/07/21 11:34:26;;;;;;;6.00;4.25;;;;;;;24.22;nan;101302.19;5015110;28;20034;-81
2021/07/21 11:36:56;;;;;;;5.85;3.92;;;;;;;24.04;nan;101298.59;4961613;28;20413;-81
2021/07/21 11:39:30;;;;;;;7.85;4.85;;;;;;;23.81;nan;101305.13;4996631;28;20050;-80
2021/07/21 11:42:00;;;;;;;8.63;4.70;;;;;;;23.68;nan;101309.31;4994250;28;20038;-80
2021/07/21 11:44:31;;;;;;;5.80;4.22;;;;;;;23.45;nan;101305.06;5000239;28;20030;-81
2021/07/21 11:46:59;;;;;;;5.10;3.53;;;;;;;23.19;nan;101323.31;5015769;28;20034;-81
2021/07/21 11:49:26;;;;;;;7.25;4.35;;;;;;;22.72;nan;101314.69;5018368;28;20033;-80
2021/07/21 11:51:54;;;;;;;5.53;3.90;;;;;;;22.41;nan;101315.16;5015466;28;20042;-80
2021/07/21 11:54:28;;;;;;;6.90;3.97;;;;;;;22.30;nan;101311.09;5017705;28;20033;-80
2021/07/21 11:56:58;;;;;;;5.68;3.70;;;;;;;22.31;nan;101312.84;5015232;28;20065;-80
2021/07/21 11:59:31;;;;;;;6.47;4.18;;;;;;;22.40;nan;101318.75;5016662;28;20350;-80
2021/07/21 12:02:11;;;;;;;6.20;4.63;;;;;;;22.32;nan;101313.69;5014367;28;20106;-80
2021/07/21 12:04:38;;;;;;;6.03;3.45;;;;;;;22.19;nan;101310.69;4974869;28;20034;-80
2021/07/21 12:07:05;;;;;;;6.30;3.85;;;;;;;22.19;nan;101310.69;5015316;28;20056;-80